CheckWX is a tool to help pilots better visualize weather data.  It is not intended as a substitute for an official pre-flight weather briefing.

08:59:47 UTC

LCEN METAR
Ercan International Airport
Nicosia, Cyprus
Current

40 mins ago

LCEN 260820Z 26004KT 200V290 9999 FEW025 13/06 Q1029 NOSIG RMK RWY11 27003KT
Observed
Jan-26 @ 08:20 UTC
Wind
  • 260° at 4 KTS
Visibility
10,000+ meters
Flight Rules
VFR
Cloud Levels
  • Few at 2,500' AGL
Temperature
13°C / 55°F
Dewpoint
C / 43°F
Humidity
63%
Altimeter
30.38" Hg
Pressure
1028.92 hPa
Previous

1 hour ago

LCEN 260750Z 26004KT 220V290 9999 FEW025 12/06 Q1029 NOSIG RMK RWY11 27004KT
Observed
Jan-26 @ 07:50 UTC
Wind
  • 260° at 4 KTS
Visibility
10,000+ meters
Flight Rules
VFR
Cloud Levels
  • Few at 2,500' AGL
Temperature
12°C / 54°F
Dewpoint
C / 43°F
Humidity
67%
Altimeter
30.38" Hg
Pressure
1028.92 hPa
Previous

2 hours ago

LCEN 260720Z 27004KT 240V300 9999 FEW025 10/05 Q1029 NOSIG RMK RWY11 27004KT
Observed
Jan-26 @ 07:20 UTC
Wind
  • 270° at 4 KTS
Visibility
10,000+ meters
Flight Rules
VFR
Cloud Levels
  • Few at 2,500' AGL
Temperature
10°C / 50°F
Dewpoint
C / 41°F
Humidity
71%
Altimeter
30.38" Hg
Pressure
1028.92 hPa